Time;durP1;ratioP1;P1;durP2;ratioP2;P2;SDS_P1;SDS_P2;PMS_P1;PMS_P2;Temp;Humidity;BMP_temperature;BMP_pressure;BME280_temperature;BME280_humidity;BME280_pressure;Samples;Min_cycle;Max_cycle;Signal;HPM_P1;HPM_P2
2022/10/24 00:00:31;;;;;;;3.63;1.67;;;12.90;99.90;;;;;;5043066;28;20648;-72
2022/10/24 00:02:56;;;;;;;8.67;1.90;;;12.90;99.90;;;;;;5053768;28;20049;-73
2022/10/24 00:05:22;;;;;;;4.17;1.63;;;12.90;99.90;;;;;;5025275;28;20289;-73
2022/10/24 00:07:49;;;;;;;6.17;1.20;;;12.90;99.90;;;;;;5006401;28;20053;-73
2022/10/24 00:10:15;;;;;;;7.13;1.70;;;12.90;99.90;;;;;;5040100;28;20764;-73
2022/10/24 00:12:42;;;;;;;4.07;1.63;;;12.90;99.90;;;;;;5022377;28;20735;-73
2022/10/24 00:15:09;;;;;;;5.27;1.70;;;13.00;99.90;;;;;;5028984;28;20296;-73
2022/10/24 00:17:35;;;;;;;7.33;1.73;;;13.00;99.90;;;;;;5028572;28;20272;-73
2022/10/24 00:20:01;;;;;;;5.40;1.70;;;13.00;99.90;;;;;;5046296;28;20700;-73
2022/10/24 00:22:27;;;;;;;5.67;1.30;;;13.00;99.90;;;;;;5044421;28;20287;-73
2022/10/24 00:24:53;;;;;;;3.70;1.00;;;13.00;99.90;;;;;;5024484;28;20284;-73
2022/10/24 00:27:19;;;;;;;3.53;1.30;;;13.10;99.90;;;;;;5043820;28;20044;-73
2022/10/24 00:29:44;;;;;;;6.27;1.67;;;13.10;99.90;;;;;;5052503;28;20042;-73
2022/10/24 00:32:10;;;;;;;3.37;1.40;;;13.10;99.90;;;;;;5018183;28;20074;-73
2022/10/24 00:34:37;;;;;;;5.13;1.67;;;13.20;99.90;;;;;;5040782;28;20052;-73
2022/10/24 00:37:03;;;;;;;3.87;1.20;;;13.20;99.90;;;;;;5043989;28;20041;-73
2022/10/24 00:39:29;;;;;;;5.30;1.27;;;13.20;99.90;;;;;;5042536;28;20284;-73
2022/10/24 00:41:57;;;;;;;6.63;1.27;;;13.20;99.90;;;;;;5025211;28;20276;-73
2022/10/24 00:44:29;;;;;;;6.40;1.87;;;13.20;99.90;;;;;;5033767;28;20528;-73
2022/10/24 00:47:18;;;;;;;6.37;1.80;;;13.20;99.90;;;;;;5043488;28;20308;-73
2022/10/24 00:49:45;;;;;;;4.20;1.50;;;13.20;99.90;;;;;;5043904;28;20387;-72
2022/10/24 00:52:14;;;;;;;4.77;1.10;;;13.20;99.90;;;;;;5042499;28;20290;-73
2022/10/24 00:54:41;;;;;;;6.17;1.83;;;13.20;99.90;;;;;;5026474;28;20370;-73
2022/10/24 00:57:19;;;;;;;5.90;1.20;;;13.20;99.90;;;;;;5047465;28;20640;-73
2022/10/24 00:59:48;;;;;;;7.50;1.43;;;13.20;99.90;;;;;;5025397;28;20327;-73
2022/10/24 01:02:14;;;;;;;5.60;1.67;;;13.20;99.90;;;;;;5042758;28;20280;-73
2022/10/24 01:04:40;;;;;;;4.07;1.30;;;13.20;99.90;;;;;;5027823;28;20292;-73
2022/10/24 01:07:31;;;;;;;6.47;1.37;;;13.20;99.90;;;;;;5025710;28;20062;-73
2022/10/24 01:10:15;;;;;;;7.00;1.80;;;13.20;99.90;;;;;;5025986;28;20398;-73
2022/10/24 01:12:59;;;;;;;8.03;1.30;;;13.30;99.90;;;;;;5041734;28;20276;-73
2022/10/24 01:15:50;;;;;;;8.87;1.50;;;13.30;99.90;;;;;;5039689;28;20356;-73
2022/10/24 01:18:21;;;;;;;6.17;1.60;;;13.40;99.90;;;;;;5026736;28;20330;-73
2022/10/24 01:21:23;;;;;;;5.33;1.47;;;13.50;99.90;;;;;;5041237;28;20276;-73
2022/10/24 01:24:16;;;;;;;8.30;1.47;;;13.50;99.90;;;;;;5041568;28;20280;-73
2022/10/24 01:26:57;;;;;;;4.83;1.43;;;13.60;99.90;;;;;;5022239;28;20715;-73
2022/10/24 01:29:48;;;;;;;3.53;1.47;;;13.70;99.90;;;;;;5039051;28;20737;-73
2022/10/24 01:32:29;;;;;;;4.97;1.67;;;13.70;99.90;;;;;;5047912;28;20280;-73
2022/10/24 01:35:07;;;;;;;5.30;1.67;;;13.70;99.90;;;;;;5019646;28;20300;-73
2022/10/24 01:37:37;;;;;;;5.17;1.63;;;13.80;99.90;;;;;;5018149;28;20330;-73
2022/10/24 01:40:12;;;;;;;6.40;1.37;;;13.80;99.90;;;;;;5036437;28;20276;-73
2022/10/24 01:42:40;;;;;;;6.57;1.48;;;13.90;99.90;;;;;;5033191;28;20699;-73
2022/10/24 01:45:08;;;;;;;4.77;1.60;;;13.90;99.90;;;;;;5018643;28;20072;-73
2022/10/24 01:47:40;;;;;;;6.57;1.57;;;13.90;99.90;;;;;;5024675;28;20284;-72
2022/10/24 01:50:10;;;;;;;5.37;1.80;;;13.90;99.90;;;;;;5037117;28;20340;-73
2022/10/24 01:52:39;;;;;;;5.73;1.50;;;13.90;99.90;;;;;;5042070;28;20295;-73
2022/10/24 01:55:06;;;;;;;4.63;1.90;;;13.90;99.90;;;;;;5043030;28;20300;-73
2022/10/24 01:57:33;;;;;;;6.23;2.40;;;13.90;99.90;;;;;;5026061;28;20639;-73
2022/10/24 02:00:00;;;;;;;4.90;1.53;;;13.90;99.90;;;;;;5044831;28;20292;-73
2022/10/24 02:02:29;;;;;;;9.73;1.83;;;13.90;99.90;;;;;;5043529;28;20300;-73
2022/10/24 02:05:08;;;;;;;6.43;1.70;;;13.90;99.90;;;;;;5041286;28;20365;-73
2022/10/24 02:07:36;;;;;;;5.87;2.03;;;13.90;99.90;;;;;;5034221;28;20763;-73
2022/10/24 02:10:08;;;;;;;9.03;1.77;;;14.00;99.90;;;;;;5040554;28;20280;-73
2022/10/24 02:12:39;;;;;;;11.40;2.10;;;14.00;99.90;;;;;;5027726;28;20288;-73
2022/10/24 02:15:17;;;;;;;8.00;1.97;;;14.00;99.90;;;;;;5038210;28;20300;-73
2022/10/24 02:17:42;;;;;;;7.70;1.93;;;14.00;99.90;;;;;;5046013;28;20291;-73
2022/10/24 02:20:09;;;;;;;5.03;2.07;;;14.00;99.90;;;;;;5026379;28;20284;-73
2022/10/24 02:22:44;;;;;;;7.60;1.90;;;14.00;99.90;;;;;;5023824;28;20083;-73
2022/10/24 02:25:17;;;;;;;7.05;2.13;;;14.00;99.90;;;;;;5038874;28;20280;-73
2022/10/24 02:28:10;;;;;;;6.70;1.93;;;14.00;99.90;;;;;;5040032;28;20048;-72
2022/10/24 02:30:43;;;;;;;4.63;1.73;;;14.00;99.90;;;;;;5033967;28;20284;-73
2022/10/24 02:33:10;;;;;;;5.83;2.00;;;13.90;99.90;;;;;;5041380;28;20287;-73
2022/10/24 02:35:37;;;;;;;6.27;1.73;;;13.90;99.90;;;;;;5040891;28;20365;-73
2022/10/24 02:38:19;;;;;;;7.53;2.37;;;13.90;99.90;;;;;;5044784;28;20298;-73
2022/10/24 02:40:46;;;;;;;5.73;1.90;;;13.90;99.90;;;;;;5045163;28;20279;-73
2022/10/24 02:43:13;;;;;;;6.30;2.07;;;13.80;99.90;;;;;;5038534;28;20331;-73
2022/10/24 02:45:39;;;;;;;6.93;2.50;;;13.80;99.90;;;;;;5004478;28;20287;-73
2022/10/24 02:48:10;;;;;;;8.97;2.20;;;13.80;99.90;;;;;;5024073;28;20685;-73
2022/10/24 02:50:38;;;;;;;4.20;1.57;;;13.80;99.90;;;;;;5020838;28;20044;-73
2022/10/24 02:53:03;;;;;;;6.10;2.00;;;13.80;99.90;;;;;;5039173;28;20280;-73
2022/10/24 02:55:29;;;;;;;8.77;2.20;;;13.80;99.90;;;;;;5043303;28;20364;-73
2022/10/24 02:57:55;;;;;;;6.57;1.80;;;13.80;99.90;;;;;;5041707;28;20037;-73
2022/10/24 03:00:21;;;;;;;8.07;1.80;;;13.70;99.90;;;;;;5043263;28;20049;-73
2022/10/24 03:02:47;;;;;;;6.27;1.90;;;13.70;99.90;;;;;;5023541;28;20052;-72
2022/10/24 03:05:13;;;;;;;8.27;2.00;;;13.70;99.90;;;;;;5022763;28;20315;-73
2022/10/24 03:07:39;;;;;;;7.20;1.97;;;13.70;99.90;;;;;;5037474;28;20651;-73
2022/10/24 03:10:05;;;;;;;6.60;1.80;;;13.60;99.90;;;;;;5040741;28;20048;-73
2022/10/24 03:12:30;;;;;;;7.03;1.80;;;13.60;99.90;;;;;;5024145;28;20038;-73
2022/10/24 03:14:56;;;;;;;6.27;1.80;;;13.60;99.90;;;;;;5039706;28;20721;-73
2022/10/24 03:17:22;;;;;;;9.33;1.87;;;13.60;99.90;;;;;;5021569;28;20098;-72
2022/10/24 03:19:47;;;;;;;8.17;2.40;;;13.70;99.90;;;;;;5020110;28;20560;-73
2022/10/24 03:22:13;;;;;;;5.70;1.60;;;13.70;99.90;;;;;;5003433;28;20044;-72
2022/10/24 03:24:39;;;;;;;9.80;2.00;;;13.70;99.90;;;;;;5037072;28;20637;-72
2022/10/24 03:27:05;;;;;;;12.37;1.90;;;13.70;99.90;;;;;;5020857;28;20171;-72
2022/10/24 03:29:30;;;;;;;7.13;1.73;;;13.80;99.90;;;;;;5038235;28;20053;-72
2022/10/24 03:31:56;;;;;;;6.67;2.40;;;13.80;99.90;;;;;;5037994;28;20037;-72
2022/10/24 03:34:22;;;;;;;7.33;1.50;;;13.80;99.90;;;;;;5024061;28;20049;-72
2022/10/24 03:36:47;;;;;;;7.20;1.80;;;13.80;99.90;;;;;;5035571;28;20420;-73
2022/10/24 03:39:13;;;;;;;5.03;1.57;;;13.80;99.90;;;;;;5017073;28;20033;-72
2022/10/24 03:41:39;;;;;;;8.10;1.77;;;13.70;99.90;;;;;;5033721;28;20073;-72
2022/10/24 03:44:05;;;;;;;4.07;1.63;;;13.70;99.90;;;;;;5015426;28;20128;-72
2022/10/24 03:46:30;;;;;;;7.63;1.70;;;13.70;99.90;;;;;;5033431;28;20073;-72
2022/10/24 03:48:56;;;;;;;9.40;2.10;;;13.70;99.90;;;;;;5032701;28;20041;-73
2022/10/24 03:51:22;;;;;;;7.40;2.20;;;13.70;99.90;;;;;;5015636;28;20041;-72
2022/10/24 03:53:47;;;;;;;6.10;1.50;;;13.60;99.90;;;;;;5014415;28;20052;-73
2022/10/24 03:56:13;;;;;;;7.20;2.03;;;13.60;99.90;;;;;;5030092;28;20037;-72
2022/10/24 03:58:39;;;;;;;10.40;1.67;;;13.50;99.90;;;;;;5013776;28;20052;-72
2022/10/24 04:01:04;;;;;;;6.57;1.93;;;13.50;99.90;;;;;;5028872;28;20315;-72
2022/10/24 04:03:30;;;;;;;5.43;1.73;;;13.40;99.90;;;;;;5013611;28;20041;-72
2022/10/24 04:05:56;;;;;;;5.80;1.90;;;13.40;99.90;;;;;;5033148;28;20041;-72
2022/10/24 04:08:22;;;;;;;6.00;1.63;;;13.40;99.90;;;;;;5031010;28;20045;-72
2022/10/24 04:10:48;;;;;;;7.97;1.60;;;13.30;99.90;;;;;;4998347;28;20041;-73
2022/10/24 04:13:14;;;;;;;5.83;1.73;;;13.30;99.90;;;;;;5012311;28;20033;-73
2022/10/24 04:15:40;;;;;;;5.57;1.47;;;13.30;99.90;;;;;;5010304;28;20377;-72
2022/10/24 04:18:07;;;;;;;9.83;1.90;;;13.20;99.90;;;;;;5014372;28;20053;-72
2022/10/24 04:20:33;;;;;;;6.73;1.40;;;13.20;99.90;;;;;;5017786;28;20319;-72
2022/10/24 04:22:59;;;;;;;4.87;1.60;;;13.20;99.90;;;;;;5030283;28;20276;-72
2022/10/24 04:25:24;;;;;;;8.03;2.13;;;13.20;99.90;;;;;;4992799;28;20312;-72
2022/10/24 04:27:50;;;;;;;4.47;1.40;;;13.20;99.90;;;;;;5010313;28;20449;-72
2022/10/24 04:30:16;;;;;;;7.00;1.73;;;13.10;99.90;;;;;;4994235;28;20041;-72
2022/10/24 04:32:42;;;;;;;4.37;1.43;;;13.10;99.90;;;;;;5010933;28;20136;-72
2022/10/24 04:35:08;;;;;;;6.00;1.30;;;13.10;99.90;;;;;;5030248;28;20045;-72
2022/10/24 04:37:34;;;;;;;11.40;1.70;;;13.10;99.90;;;;;;5014490;28;20067;-73
2022/10/24 04:39:59;;;;;;;3.10;1.40;;;13.10;99.90;;;;;;5013652;28;20942;-72
2022/10/24 04:42:25;;;;;;;7.43;1.63;;;13.00;99.90;;;;;;5026626;28;20041;-72
2022/10/24 04:44:51;;;;;;;4.57;1.47;;;13.10;99.90;;;;;;5011465;28;20053;-72
2022/10/24 04:47:17;;;;;;;5.00;1.33;;;13.10;99.90;;;;;;5026681;28;20839;-72
2022/10/24 04:49:43;;;;;;;3.23;1.10;;;13.10;99.90;;;;;;5026541;28;20077;-72
2022/10/24 04:52:08;;;;;;;5.97;1.67;;;13.10;99.90;;;;;;5008432;28;20033;-72
2022/10/24 04:54:34;;;;;;;5.93;1.50;;;13.10;99.90;;;;;;5012777;28;20102;-73
2022/10/24 04:57:00;;;;;;;6.53;1.23;;;13.10;99.90;;;;;;5030050;28;20044;-72
2022/10/24 04:59:25;;;;;;;9.13;1.30;;;13.10;99.90;;;;;;4991084;28;20489;-72
2022/10/24 05:01:53;;;;;;;6.67;1.50;;;13.10;99.90;;;;;;5025498;28;20053;-72
2022/10/24 05:04:18;;;;;;;6.47;1.33;;;13.20;99.90;;;;;;5015976;28;20083;-72
2022/10/24 05:06:45;;;;;;;7.10;1.30;;;13.20;99.90;;;;;;5028279;28;20592;-73
2022/10/24 05:09:11;;;;;;;4.67;1.40;;;13.20;99.90;;;;;;5029562;28;20073;-73
2022/10/24 05:11:36;;;;;;;6.40;1.50;;;13.40;99.90;;;;;;5013561;28;20385;-72
2022/10/24 05:14:02;;;;;;;7.03;1.50;;;13.40;99.90;;;;;;5042433;28;20409;-73
2022/10/24 05:16:28;;;;;;;4.50;1.13;;;13.50;99.90;;;;;;5014621;28;20037;-73
2022/10/24 05:18:54;;;;;;;4.10;1.00;;;13.60;99.90;;;;;;5000926;28;20076;-73
2022/10/24 05:21:19;;;;;;;6.80;1.10;;;13.60;99.90;;;;;;5013070;28;20037;-73
2022/10/24 05:23:45;;;;;;;8.30;1.40;;;13.70;99.90;;;;;;4997432;28;20084;-73
2022/10/24 05:26:11;;;;;;;5.20;1.03;;;13.70;99.90;;;;;;5023285;28;20041;-72
2022/10/24 05:28:36;;;;;;;6.00;1.20;;;13.60;99.90;;;;;;5028471;28;20038;-72
2022/10/24 05:31:02;;;;;;;5.53;1.00;;;13.70;99.90;;;;;;5029148;28;20048;-72
2022/10/24 05:33:28;;;;;;;5.33;1.30;;;13.70;99.90;;;;;;5031358;28;20065;-72
2022/10/24 05:35:53;;;;;;;7.93;1.00;;;13.60;99.90;;;;;;5009185;28;20046;-72
2022/10/24 05:38:19;;;;;;;4.23;1.20;;;13.60;99.90;;;;;;5026407;28;20041;-73
2022/10/24 05:40:50;;;;;;;5.93;1.00;;;13.60;99.90;;;;;;5026254;28;20179;-72
2022/10/24 05:43:16;;;;;;;5.37;1.03;;;13.50;99.90;;;;;;5027699;28;20053;-72
2022/10/24 05:45:42;;;;;;;6.37;0.97;;;13.50;99.90;;;;;;5029307;28;20287;-72
2022/10/24 05:48:07;;;;;;;6.10;1.10;;;13.50;99.90;;;;;;5028180;28;20315;-72
2022/10/24 05:50:34;;;;;;;7.03;1.10;;;13.50;99.90;;;;;;5026543;28;20120;-73
2022/10/24 05:53:00;;;;;;;6.47;1.10;;;13.50;99.90;;;;;;5011867;28;20516;-73
2022/10/24 05:55:26;;;;;;;4.93;1.07;;;13.40;99.90;;;;;;5005620;28;20343;-73
2022/10/24 05:57:52;;;;;;;6.60;1.43;;;13.40;99.90;;;;;;5028203;28;20316;-72
2022/10/24 06:00:18;;;;;;;4.40;0.73;;;13.40;99.90;;;;;;5028038;28;20049;-72
2022/10/24 06:02:45;;;;;;;5.27;0.80;;;13.30;99.90;;;;;;5015934;28;20046;-72
2022/10/24 06:05:11;;;;;;;8.30;1.07;;;13.30;99.90;;;;;;5027579;28;20041;-72
2022/10/24 06:07:38;;;;;;;7.77;1.30;;;13.30;99.90;;;;;;5028957;28;20283;-72
2022/10/24 06:10:05;;;;;;;3.93;0.90;;;13.20;99.90;;;;;;5045186;28;20291;-72
2022/10/24 06:12:31;;;;;;;9.30;0.73;;;13.20;99.90;;;;;;5027607;28;20280;-72
2022/10/24 06:14:59;;;;;;;5.53;1.10;;;13.20;99.90;;;;;;5012333;28;20664;-72
2022/10/24 06:17:25;;;;;;;3.77;0.80;;;13.30;99.90;;;;;;5028637;28;20288;-72
2022/10/24 06:19:51;;;;;;;5.60;0.90;;;13.40;99.90;;;;;;5026900;28;20283;-73
2022/10/24 06:22:17;;;;;;;7.43;1.10;;;13.40;99.90;;;;;;5010787;28;20333;-73
2022/10/24 06:24:43;;;;;;;5.13;1.10;;;13.40;99.90;;;;;;5027464;28;20127;-72
2022/10/24 06:27:09;;;;;;;7.03;1.30;;;13.50;99.90;;;;;;5013125;28;20370;-72
2022/10/24 06:29:35;;;;;;;3.87;0.70;;;13.50;99.90;;;;;;5029969;28;20041;-73
2022/10/24 06:32:01;;;;;;;5.50;1.13;;;13.50;99.90;;;;;;5015967;28;20100;-72
2022/10/24 06:34:26;;;;;;;3.90;0.70;;;13.60;99.90;;;;;;5036939;28;20037;-72
2022/10/24 06:36:52;;;;;;;6.30;0.70;;;13.60;99.90;;;;;;5002208;28;20627;-72
2022/10/24 06:39:18;;;;;;;8.10;0.80;;;13.70;99.90;;;;;;5032719;28;20049;-73
2022/10/24 06:41:44;;;;;;;7.23;0.87;;;13.70;99.90;;;;;;5032145;28;20068;-72
2022/10/24 06:44:10;;;;;;;6.37;0.77;;;13.80;99.90;;;;;;5031351;28;20057;-73
2022/10/24 06:46:36;;;;;;;5.50;0.80;;;13.80;99.90;;;;;;5033276;28;20235;-73
2022/10/24 06:49:01;;;;;;;6.13;1.07;;;13.80;99.90;;;;;;5033520;28;20057;-72
2022/10/24 06:51:27;;;;;;;3.57;0.63;;;13.80;99.90;;;;;;5010580;28;20099;-72
2022/10/24 06:53:53;;;;;;;7.70;1.10;;;13.90;99.90;;;;;;5032757;28;20172;-72
2022/10/24 06:56:19;;;;;;;5.77;0.73;;;13.90;99.90;;;;;;5030865;28;20049;-71
2022/10/24 06:58:45;;;;;;;6.07;0.83;;;13.90;99.90;;;;;;5014835;28;20030;-72
2022/10/24 07:01:20;;;;;;;6.97;0.70;;;14.00;99.90;;;;;;5027549;28;20413;-72
2022/10/24 07:03:47;;;;;;;6.60;0.80;;;14.10;99.90;;;;;;5026281;28;20037;-72
2022/10/24 07:06:26;;;;;;;3.03;0.60;;;14.10;99.90;;;;;;4998426;28;20302;-72
2022/10/24 07:08:53;;;;;;;5.83;0.53;;;14.20;99.90;;;;;;5012303;28;20375;-73
2022/10/24 07:11:19;;;;;;;7.73;1.30;;;14.20;99.90;;;;;;5011419;28;20283;-73
2022/10/24 07:13:45;;;;;;;5.27;0.93;;;14.20;99.90;;;;;;5032987;28;20279;-73
2022/10/24 07:16:11;;;;;;;5.77;1.43;;;14.20;99.90;;;;;;5015427;28;20462;-73
2022/10/24 07:18:37;;;;;;;3.33;0.40;;;14.20;99.90;;;;;;5027032;28;20067;-71
2022/10/24 07:21:09;;;;;;;6.93;1.27;;;14.20;99.90;;;;;;5027378;28;20081;-72
2022/10/24 07:23:35;;;;;;;6.00;0.80;;;14.30;99.90;;;;;;5023742;28;20048;-72
2022/10/24 07:26:09;;;;;;;4.07;0.80;;;14.30;99.90;;;;;;5025964;28;20276;-72
2022/10/24 07:28:36;;;;;;;6.23;0.63;;;14.30;99.90;;;;;;5035600;28;20099;-72
2022/10/24 07:31:03;;;;;;;9.33;0.90;;;14.40;99.90;;;;;;5027911;28;20609;-72
2022/10/24 07:33:29;;;;;;;5.03;0.60;;;14.40;99.90;;;;;;5010346;28;20279;-72
2022/10/24 07:35:56;;;;;;;7.03;0.87;;;14.40;99.90;;;;;;5026858;28;20300;-72
2022/10/24 07:38:22;;;;;;;7.93;1.00;;;14.50;99.90;;;;;;5032499;28;20295;-72
2022/10/24 07:40:49;;;;;;;2.13;0.47;;;14.40;99.90;;;;;;5027714;28;20292;-72
2022/10/24 07:43:15;;;;;;;6.90;0.80;;;14.50;99.90;;;;;;5018227;28;20318;-71
2022/10/24 07:45:42;;;;;;;6.33;0.60;;;14.50;99.90;;;;;;5000925;28;20318;-72
2022/10/24 07:48:08;;;;;;;5.80;0.77;;;14.60;99.90;;;;;;5033647;28;20296;-72
2022/10/24 07:50:40;;;;;;;6.43;1.20;;;14.70;99.90;;;;;;5044019;28;20419;-72
2022/10/24 07:53:05;;;;;;;3.23;0.93;;;14.70;99.90;;;;;;5025674;28;20852;-72
2022/10/24 07:55:31;;;;;;;9.17;0.80;;;14.70;99.90;;;;;;5029819;28;20308;-72
2022/10/24 07:57:57;;;;;;;7.40;0.60;;;14.70;99.90;;;;;;5021232;28;20038;-72
2022/10/24 08:00:24;;;;;;;5.03;0.60;;;14.70;99.90;;;;;;5032096;28;20113;-72
2022/10/24 08:02:50;;;;;;;5.53;0.80;;;14.80;99.90;;;;;;5032521;28;20037;-72
2022/10/24 08:05:16;;;;;;;6.20;0.60;;;14.80;99.90;;;;;;5033444;28;20375;-72
2022/10/24 08:07:41;;;;;;;3.83;0.63;;;14.70;99.90;;;;;;5014367;28;20045;-72
2022/10/24 08:10:12;;;;;;;6.00;0.60;;;14.80;99.90;;;;;;5015031;28;20049;-72
2022/10/24 08:12:38;;;;;;;9.73;1.17;;;14.80;99.90;;;;;;5015262;28;20049;-72
2022/10/24 08:15:04;;;;;;;6.20;0.80;;;14.90;99.90;;;;;;5014072;28;20321;-73
2022/10/24 08:17:30;;;;;;;5.37;0.80;;;15.00;99.90;;;;;;5031508;28;20088;-72
2022/10/24 08:19:55;;;;;;;4.80;0.50;;;15.00;99.90;;;;;;5033806;28;20928;-73
2022/10/24 08:22:21;;;;;;;6.53;1.30;;;15.00;99.90;;;;;;5032336;28;20049;-73
2022/10/24 08:24:47;;;;;;;4.60;0.80;;;15.00;99.90;;;;;;5029436;28;20136;-73
2022/10/24 08:27:12;;;;;;;8.20;1.23;;;15.00;99.90;;;;;;5029616;28;20067;-72
2022/10/24 08:29:38;;;;;;;10.13;0.90;;;15.00;99.90;;;;;;5028593;28;20526;-70
2022/10/24 08:32:08;;;;;;;7.73;0.67;;;15.00;99.90;;;;;;5012492;28;20033;-70
2022/10/24 08:34:33;;;;;;;7.07;0.87;;;15.00;99.90;;;;;;5026757;28;20574;-71
2022/10/24 08:36:59;;;;;;;7.70;1.20;;;15.00;99.90;;;;;;4998915;28;20300;-71
2022/10/24 08:39:25;;;;;;;8.80;0.90;;;15.00;99.90;;;;;;5012412;28;20802;-71
2022/10/24 08:42:04;;;;;;;6.23;0.70;;;15.00;99.90;;;;;;5013202;28;20627;-71
2022/10/24 08:44:41;;;;;;;6.40;0.80;;;15.00;99.90;;;;;;5040152;28;20314;-71
2022/10/24 08:47:31;;;;;;;5.00;0.50;;;15.00;99.90;;;;;;5029672;28;20716;-71
2022/10/24 08:50:21;;;;;;;5.17;0.90;;;15.10;99.90;;;;;;5048686;28;20294;-71
2022/10/24 08:53:09;;;;;;;6.67;0.90;;;15.20;99.90;;;;;;5015170;28;20284;-71
2022/10/24 08:55:43;;;;;;;9.07;0.80;;;15.30;99.90;;;;;;5029640;28;20608;-71
2022/10/24 08:58:20;;;;;;;7.07;0.97;;;15.40;99.90;;;;;;5034876;28;20268;-71
2022/10/24 09:00:49;;;;;;;8.50;0.63;;;15.50;99.90;;;;;;5031999;28;20384;-71
2022/10/24 09:03:39;;;;;;;4.57;0.63;;;15.70;99.90;;;;;;5029881;28;20768;-71
2022/10/24 09:06:13;;;;;;;6.50;0.87;;;15.80;99.90;;;;;;5040048;28;20276;-71
2022/10/24 09:09:09;;;;;;;7.23;0.67;;;15.90;99.90;;;;;;5012470;28;20280;-71
2022/10/24 09:11:43;;;;;;;;;;;15.90;99.90;;;;;;5015098;28;20291;-71
2022/10/24 09:14:18;;;;;;;6.90;0.67;;;15.90;99.90;;;;;;5012313;28;19975;-71
2022/10/24 09:16:48;;;;;;;5.72;1.15;;;16.00;99.90;;;;;;5029811;28;20512;-71
2022/10/24 09:19:18;;;;;;;4.47;0.83;;;16.10;99.90;;;;;;5032621;28;20059;-71
2022/10/24 09:21:45;;;;;;;4.23;0.80;;;16.20;99.90;;;;;;5031719;28;20311;-71
2022/10/24 09:24:28;;;;;;;7.20;0.80;;;16.30;99.90;;;;;;5033111;28;20288;-71
2022/10/24 09:26:55;;;;;;;7.50;0.60;;;16.20;97.50;;;;;;5031568;28;20303;-71
2022/10/24 09:29:20;;;;;;;6.57;0.83;;;16.20;98.00;;;;;;5014996;28;20992;-71
2022/10/24 09:31:48;;;;;;;7.43;0.93;;;16.10;98.60;;;;;;5035468;28;20303;-71
2022/10/24 09:34:16;;;;;;;6.17;0.73;;;15.90;98.90;;;;;;5031202;28;20486;-71
2022/10/24 09:36:41;;;;;;;6.90;0.90;;;15.90;99.40;;;;;;5012350;28;20406;-71
2022/10/24 09:39:24;;;;;;;7.93;0.97;;;15.80;99.90;;;;;;5011423;28;20312;-71
2022/10/24 09:41:50;;;;;;;3.90;0.50;;;15.80;99.40;;;;;;5030298;28;20044;-71
2022/10/24 09:44:42;;;;;;;10.23;1.20;;;15.70;99.90;;;;;;5015293;28;20267;-71
2022/10/24 09:47:24;;;;;;;7.80;1.10;;;15.80;99.10;;;;;;5026262;28;20103;-71
2022/10/24 09:49:50;;;;;;;3.63;0.80;;;15.80;97.50;;;;;;5028349;28;20282;-71
2022/10/24 09:52:22;;;;;;;5.60;0.90;;;15.80;99.90;;;;;;5032136;28;20363;-71
2022/10/24 09:55:15;;;;;;;6.53;0.93;;;15.60;99.90;;;;;;5026923;28;20378;-71
2022/10/24 09:57:41;;;;;;;8.40;1.77;;;15.40;99.90;;;;;;5022662;28;20284;-71
2022/10/24 10:00:26;;;;;;;5.87;0.93;;;15.30;99.90;;;;;;5009722;28;20703;-71
2022/10/24 10:02:58;;;;;;;7.20;0.75;;;15.20;99.90;;;;;;5029756;28;20079;-71
2022/10/24 10:05:24;;;;;;;8.57;1.13;;;15.00;99.90;;;;;;5027037;28;20037;-71
2022/10/24 10:07:51;;;;;;;5.03;0.80;;;14.90;99.90;;;;;;5010955;28;20284;-71
2022/10/24 10:10:33;;;;;;;10.13;0.93;;;14.90;99.90;;;;;;5027894;28;20171;-71
2022/10/24 10:13:13;;;;;;;11.67;1.63;;;15.20;99.90;;;;;;5013411;28;20283;-71
2022/10/24 10:16:11;;;;;;;5.50;0.83;;;15.40;99.90;;;;;;5048633;28;20825;-71
2022/10/24 10:18:37;;;;;;;7.70;1.03;;;15.60;99.90;;;;;;5024511;28;20292;-71
2022/10/24 10:21:17;;;;;;;7.93;1.00;;;15.60;99.90;;;;;;5012328;28;20310;-72
2022/10/24 10:23:52;;;;;;;8.33;1.13;;;15.70;99.90;;;;;;5030047;28;20041;-71
2022/10/24 10:26:20;;;;;;;8.10;1.00;;;15.80;99.90;;;;;;5042164;28;20283;-72
2022/10/24 10:29:04;;;;;;;8.57;1.17;;;16.00;99.90;;;;;;5014003;28;20280;-72
2022/10/24 10:31:45;;;;;;;11.20;0.90;;;16.00;99.90;;;;;;5024797;28;20639;-73
2022/10/24 10:34:38;;;;;;;7.50;0.90;;;16.10;99.90;;;;;;5032382;28;20306;-73
2022/10/24 10:37:21;;;;;;;9.97;1.10;;;16.00;99.90;;;;;;5021706;28;20281;-72
2022/10/24 10:39:59;;;;;;;4.93;0.90;;;16.00;99.90;;;;;;5035374;28;20354;-73
2022/10/24 10:42:34;;;;;;;9.13;1.23;;;16.20;99.90;;;;;;5026508;28;20413;-74
2022/10/24 10:45:28;;;;;;;7.82;0.90;;;16.10;99.90;;;;;;5007373;28;20292;-73
2022/10/24 10:48:12;;;;;;;10.17;1.47;;;16.20;99.90;;;;;;5017247;28;20060;-73
2022/10/24 10:50:58;;;;;;;9.80;1.00;;;16.20;99.90;;;;;;5013797;28;20291;-73
2022/10/24 10:53:42;;;;;;;9.47;1.90;;;16.30;99.90;;;;;;5014669;28;20474;-73
2022/10/24 10:56:45;;;;;;;5.10;0.73;;;16.30;97.20;;;;;;5033021;28;20289;-73
2022/10/24 10:59:31;;;;;;;8.23;1.20;;;16.20;96.80;;;;;;5027764;28;20276;-72
2022/10/24 11:02:04;;;;;;;7.80;1.23;;;16.10;98.30;;;;;;5024180;28;20293;-72
2022/10/24 11:04:30;;;;;;;12.97;1.27;;;16.00;99.50;;;;;;5009849;28;20368;-72
2022/10/24 11:07:29;;;;;;;10.90;2.13;;;16.10;99.60;;;;;;5015131;28;20367;-72
2022/10/24 11:10:07;;;;;;;10.97;2.33;;;16.30;99.40;;;;;;5024118;28;20109;-72
2022/10/24 11:12:44;;;;;;;10.10;1.00;;;16.40;99.80;;;;;;5010581;28;20268;-72
2022/10/24 11:15:19;;;;;;;9.27;1.70;;;16.40;98.90;;;;;;5030417;28;20334;-72
2022/10/24 11:17:49;;;;;;;;;;;16.50;97.10;;;;;;5018789;28;20315;-72
2022/10/24 11:20:30;;;;;;;9.73;1.30;;;16.50;97.50;;;;;;5033165;28;20011;-72
2022/10/24 11:23:13;;;;;;;8.03;0.97;;;16.60;97.10;;;;;;5034114;28;20806;-72
2022/10/24 11:25:53;;;;;;;10.90;1.67;;;16.60;97.40;;;;;;5035688;28;20284;-72
2022/10/24 11:28:31;;;;;;;8.53;1.53;;;16.60;95.90;;;;;;5052911;28;20840;-72
2022/10/24 11:31:21;;;;;;;8.17;1.13;;;16.60;94.80;;;;;;5037679;28;20295;-72
2022/10/24 11:34:10;;;;;;;9.83;1.43;;;16.60;97.20;;;;;;5032557;28;20367;-72
2022/10/24 11:36:45;;;;;;;9.57;1.67;;;16.60;96.20;;;;;;5036521;28;20657;-72
2022/10/24 11:39:21;;;;;;;11.83;1.53;;;16.50;96.10;;;;;;5018033;28;20292;-73
2022/10/24 11:42:04;;;;;;;13.03;1.83;;;16.40;96.90;;;;;;5032722;28;20655;-72
2022/10/24 11:44:51;;;;;;;7.10;1.13;;;16.40;97.40;;;;;;5032569;28;20288;-72
2022/10/24 11:47:23;;;;;;;8.57;1.20;;;16.40;97.10;;;;;;5031054;28;20342;-73
2022/10/24 11:50:29;;;;;;;8.07;0.90;;;16.30;98.20;;;;;;5030807;28;20401;-72
2022/10/24 11:53:12;;;;;;;12.10;1.80;;;16.30;97.00;;;;;;5010495;28;20292;-73
2022/10/24 11:55:42;;;;;;;9.50;1.37;;;16.30;96.60;;;;;;5030071;28;20037;-73
2022/10/24 11:58:13;;;;;;;9.37;1.60;;;16.30;98.40;;;;;;5033336;28;20640;-72
2022/10/24 12:01:18;;;;;;;14.27;2.00;;;16.30;98.90;;;;;;5030613;28;20288;-72
2022/10/24 12:04:02;;;;;;;8.90;1.50;;;16.20;95.30;;;;;;5024942;28;20292;-72
2022/10/24 12:07:02;;;;;;;10.83;1.70;;;16.20;95.80;;;;;;5039373;28;20275;-71
2022/10/24 12:09:59;;;;;;;8.03;1.00;;;16.30;97.60;;;;;;5018125;28;20312;-72
2022/10/24 12:13:00;;;;;;;12.13;1.20;;;16.50;95.20;;;;;;5028304;28;20640;-72
2022/10/24 12:15:42;;;;;;;8.33;1.20;;;16.60;91.80;;;;;;5029914;28;20516;-73
2022/10/24 12:18:11;;;;;;;10.33;1.20;;;16.60;91.20;;;;;;5031573;28;20300;-72
2022/10/24 12:20:38;;;;;;;8.87;1.20;;;16.60;91.80;;;;;;5012087;28;20837;-72
2022/10/24 12:23:04;;;;;;;7.70;1.13;;;16.40;92.00;;;;;;5030800;28;20893;-72
2022/10/24 12:25:34;;;;;;;8.33;1.10;;;16.30;94.00;;;;;;5012942;28;20387;-72
2022/10/24 12:28:18;;;;;;;11.57;1.90;;;16.10;94.00;;;;;;5030155;28;20332;-72
2022/10/24 12:31:17;;;;;;;9.83;1.67;;;15.90;93.90;;;;;;5036972;28;20285;-72
2022/10/24 12:33:45;;;;;;;8.77;1.20;;;15.90;95.50;;;;;;5017141;28;20870;-72
2022/10/24 12:36:11;;;;;;;9.87;1.23;;;16.00;96.70;;;;;;5032807;28;20276;-72
2022/10/24 12:38:37;;;;;;;11.47;1.40;;;16.20;95.90;;;;;;5031360;28;20835;-72
2022/10/24 12:41:25;;;;;;;11.37;0.90;;;16.30;94.80;;;;;;5040580;28;20749;-72
2022/10/24 12:44:34;;;;;;;10.83;1.13;;;16.50;94.80;;;;;;5030913;28;20045;-72
2022/10/24 12:47:15;;;;;;;6.77;1.00;;;16.70;93.80;;;;;;5039542;28;20280;-72
2022/10/24 12:49:41;;;;;;;13.00;1.20;;;16.70;92.30;;;;;;5043934;28;20286;-72
2022/10/24 12:52:29;;;;;;;9.63;1.20;;;16.80;94.00;;;;;;5033509;28;20280;-72
2022/10/24 12:54:56;;;;;;;11.90;1.57;;;16.90;91.50;;;;;;5002113;28;20695;-73
2022/10/24 12:57:36;;;;;;;16.17;2.13;;;16.90;92.20;;;;;;5027304;28;20802;-72
2022/10/24 13:00:20;;;;;;;8.03;1.03;;;16.70;91.90;;;;;;5011380;28;20303;-72
2022/10/24 13:03:20;;;;;;;8.83;1.47;;;16.60;93.70;;;;;;5027601;28;20288;-71
2022/10/24 13:05:55;;;;;;;9.93;1.33;;;16.60;92.30;;;;;;5026772;28;20751;-72
2022/10/24 13:09:06;;;;;;;10.18;1.52;;;16.50;94.20;;;;;;5012772;28;20713;-72